sensor_id;sensor_type;location;lat;lon;timestamp;temperature;humidity
1680;DHT22;838;51.794;12.258;2023-02-15T00:01:39;1.50;24.70
1680;DHT22;838;51.794;12.258;2023-02-15T00:04:06;1.30;24.60
1680;DHT22;838;51.794;12.258;2023-02-15T00:06:32;1.20;25.00
1680;DHT22;838;51.794;12.258;2023-02-15T00:08:58;1.00;26.40
1680;DHT22;838;51.794;12.258;2023-02-15T00:11:24;0.90;27.80
1680;DHT22;838;51.794;12.258;2023-02-15T00:14:11;0.70;29.40
1680;DHT22;838;51.794;12.258;2023-02-15T00:16:38;0.60;31.60
1680;DHT22;838;51.794;12.258;2023-02-15T00:19:05;0.80;32.90
1680;DHT22;838;51.794;12.258;2023-02-15T00:21:32;0.70;33.10
1680;DHT22;838;51.794;12.258;2023-02-15T00:24:00;0.70;33.70
1680;DHT22;838;51.794;12.258;2023-02-15T00:26:26;0.70;34.90
1680;DHT22;838;51.794;12.258;2023-02-15T00:28:52;0.80;35.30
1680;DHT22;838;51.794;12.258;2023-02-15T00:31:18;0.60;35.60
1680;DHT22;838;51.794;12.258;2023-02-15T00:33:44;0.60;36.80
1680;DHT22;838;51.794;12.258;2023-02-15T00:36:12;0.60;36.50
1680;DHT22;838;51.794;12.258;2023-02-15T00:38:38;0.60;36.80
1680;DHT22;838;51.794;12.258;2023-02-15T00:41:06;0.60;36.60
1680;DHT22;838;51.794;12.258;2023-02-15T00:43:33;0.60;37.20
1680;DHT22;838;51.794;12.258;2023-02-15T00:45:59;0.60;37.40
1680;DHT22;838;51.794;12.258;2023-02-15T00:48:25;0.70;34.40
1680;DHT22;838;51.794;12.258;2023-02-15T00:50:54;0.70;32.50
1680;DHT22;838;51.794;12.258;2023-02-15T00:53:21;0.70;30.80
1680;DHT22;838;51.794;12.258;2023-02-15T00:55:47;0.50;31.70
1680;DHT22;838;51.794;12.258;2023-02-15T00:58:14;0.40;33.40
1680;DHT22;838;51.794;12.258;2023-02-15T01:00:41;0.70;34.30
1680;DHT22;838;51.794;12.258;2023-02-15T01:03:08;0.80;30.60
1680;DHT22;838;51.794;12.258;2023-02-15T01:05:33;1.00;29.00
1680;DHT22;838;51.794;12.258;2023-02-15T01:07:59;0.80;28.20
1680;DHT22;838;51.794;12.258;2023-02-15T01:10:26;0.60;28.90
1680;DHT22;838;51.794;12.258;2023-02-15T01:12:52;0.70;29.70
1680;DHT22;838;51.794;12.258;2023-02-15T01:15:18;0.60;29.70
1680;DHT22;838;51.794;12.258;2023-02-15T01:17:44;0.70;29.50
1680;DHT22;838;51.794;12.258;2023-02-15T01:20:17;0.70;30.60
1680;DHT22;838;51.794;12.258;2023-02-15T01:22:43;0.60;32.50
1680;DHT22;838;51.794;12.258;2023-02-15T01:25:09;0.50;33.40
1680;DHT22;838;51.794;12.258;2023-02-15T01:27:34;0.50;34.40
1680;DHT22;838;51.794;12.258;2023-02-15T01:30:00;0.50;35.80
1680;DHT22;838;51.794;12.258;2023-02-15T01:32:26;0.80;36.20
1680;DHT22;838;51.794;12.258;2023-02-15T01:34:52;0.90;34.30
1680;DHT22;838;51.794;12.258;2023-02-15T01:37:18;1.20;34.50
1680;DHT22;838;51.794;12.258;2023-02-15T01:39:44;1.60;31.90
1680;DHT22;838;51.794;12.258;2023-02-15T01:42:13;1.70;28.60
1680;DHT22;838;51.794;12.258;2023-02-15T01:44:49;1.60;28.30
1680;DHT22;838;51.794;12.258;2023-02-15T01:47:39;1.20;29.20
1680;DHT22;838;51.794;12.258;2023-02-15T01:52:37;1.30;31.10
1680;DHT22;838;51.794;12.258;2023-02-15T01:55:06;1.60;28.90
1680;DHT22;838;51.794;12.258;2023-02-15T01:57:33;1.60;27.00
1680;DHT22;838;51.794;12.258;2023-02-15T02:00:02;1.40;26.80
1680;DHT22;838;51.794;12.258;2023-02-15T02:02:31;1.10;28.40
1680;DHT22;838;51.794;12.258;2023-02-15T02:05:00;0.70;29.60
1680;DHT22;838;51.794;12.258;2023-02-15T02:07:36;0.30;32.20
1680;DHT22;838;51.794;12.258;2023-02-15T02:10:07;0.10;35.70
1680;DHT22;838;51.794;12.258;2023-02-15T02:12:35;0.00;38.40
1680;DHT22;838;51.794;12.258;2023-02-15T02:15:03;-0.10;40.60
1680;DHT22;838;51.794;12.258;2023-02-15T02:34:30;0.00;44.80
1680;DHT22;838;51.794;12.258;2023-02-15T02:42:22;-0.20;41.70
1680;DHT22;838;51.794;12.258;2023-02-15T02:45:07;-0.30;42.60
1680;DHT22;838;51.794;12.258;2023-02-15T02:50:17;0.40;43.80
1680;DHT22;838;51.794;12.258;2023-02-15T02:52:52;0.80;39.80
1680;DHT22;838;51.794;12.258;2023-02-15T03:00:48;1.40;29.10
1680;DHT22;838;51.794;12.258;2023-02-15T03:05:50;1.40;27.70
1680;DHT22;838;51.794;12.258;2023-02-15T03:08:17;1.60;27.10
1680;DHT22;838;51.794;12.258;2023-02-15T03:10:51;1.50;25.60
1680;DHT22;838;51.794;12.258;2023-02-15T03:13:19;1.40;25.80
1680;DHT22;838;51.794;12.258;2023-02-15T03:15:45;1.30;25.30
1680;DHT22;838;51.794;12.258;2023-02-15T03:18:39;0.80;24.70
1680;DHT22;838;51.794;12.258;2023-02-15T03:21:06;0.00;27.40
1680;DHT22;838;51.794;12.258;2023-02-15T03:23:33;-0.20;30.00
1680;DHT22;838;51.794;12.258;2023-02-15T03:26:04;-0.70;32.90
1680;DHT22;838;51.794;12.258;2023-02-15T03:28:39;-0.90;35.90
1680;DHT22;838;51.794;12.258;2023-02-15T03:31:08;-0.90;38.20
1680;DHT22;838;51.794;12.258;2023-02-15T03:33:39;-1.00;39.90
1680;DHT22;838;51.794;12.258;2023-02-15T03:36:15;-0.90;41.30
1680;DHT22;838;51.794;12.258;2023-02-15T03:39:02;-1.00;42.50
1680;DHT22;838;51.794;12.258;2023-02-15T03:41:35;-0.90;42.30
1680;DHT22;838;51.794;12.258;2023-02-15T03:44:28;-0.80;41.70
1680;DHT22;838;51.794;12.258;2023-02-15T03:47:05;-0.80;40.10
1680;DHT22;838;51.794;12.258;2023-02-15T03:49:42;-0.80;39.40
1680;DHT22;838;51.794;12.258;2023-02-15T03:52:11;-0.80;39.20
1680;DHT22;838;51.794;12.258;2023-02-15T03:54:38;-1.00;39.90
1680;DHT22;838;51.794;12.258;2023-02-15T03:57:14;-0.80;40.90
1680;DHT22;838;51.794;12.258;2023-02-15T04:00:00;-0.50;40.40
1680;DHT22;838;51.794;12.258;2023-02-15T04:03:29;0.10;38.60
1680;DHT22;838;51.794;12.258;2023-02-15T04:06:01;0.70;33.70
1680;DHT22;838;51.794;12.258;2023-02-15T04:08:27;0.70;29.60
1680;DHT22;838;51.794;12.258;2023-02-15T04:11:12;0.70;28.70
1680;DHT22;838;51.794;12.258;2023-02-15T04:13:39;0.40;28.70
1680;DHT22;838;51.794;12.258;2023-02-15T04:16:04;0.20;29.00
1680;DHT22;838;51.794;12.258;2023-02-15T04:18:41;0.10;29.80
1680;DHT22;838;51.794;12.258;2023-02-15T04:21:27;0.10;29.70
1680;DHT22;838;51.794;12.258;2023-02-15T04:24:12;0.00;30.40
1680;DHT22;838;51.794;12.258;2023-02-15T04:26:57;0.40;32.30
1680;DHT22;838;51.794;12.258;2023-02-15T04:29:24;0.90;29.70
1680;DHT22;838;51.794;12.258;2023-02-15T04:31:51;1.10;27.00
1680;DHT22;838;51.794;12.258;2023-02-15T04:34:17;0.80;26.00
1680;DHT22;838;51.794;12.258;2023-02-15T04:36:43;0.60;27.60
1680;DHT22;838;51.794;12.258;2023-02-15T04:39:09;0.70;28.60
1680;DHT22;838;51.794;12.258;2023-02-15T04:41:35;0.70;28.10
1680;DHT22;838;51.794;12.258;2023-02-15T04:44:01;0.80;27.80
1680;DHT22;838;51.794;12.258;2023-02-15T04:46:27;0.50;28.10
1680;DHT22;838;51.794;12.258;2023-02-15T04:48:54;0.20;32.00
1680;DHT22;838;51.794;12.258;2023-02-15T04:51:19;-0.20;37.90
1680;DHT22;838;51.794;12.258;2023-02-15T04:53:45;-0.40;42.30
1680;DHT22;838;51.794;12.258;2023-02-15T04:56:11;-0.50;45.80
1680;DHT22;838;51.794;12.258;2023-02-15T04:58:36;-0.30;49.00
1680;DHT22;838;51.794;12.258;2023-02-15T05:01:06;-0.50;51.40
1680;DHT22;838;51.794;12.258;2023-02-15T05:03:32;-0.40;53.20
1680;DHT22;838;51.794;12.258;2023-02-15T05:05:58;-0.10;54.80
1680;DHT22;838;51.794;12.258;2023-02-15T05:08:24;-0.30;56.30
1680;DHT22;838;51.794;12.258;2023-02-15T05:10:49;-0.30;57.90
1680;DHT22;838;51.794;12.258;2023-02-15T05:13:15;0.00;59.70
1680;DHT22;838;51.794;12.258;2023-02-15T05:15:41;-0.20;61.00
1680;DHT22;838;51.794;12.258;2023-02-15T05:18:07;-0.20;62.40
1680;DHT22;838;51.794;12.258;2023-02-15T05:20:33;0.00;63.90
1680;DHT22;838;51.794;12.258;2023-02-15T05:22:59;-0.10;65.10
1680;DHT22;838;51.794;12.258;2023-02-15T05:25:25;0.20;66.10
1680;DHT22;838;51.794;12.258;2023-02-15T05:28:12;-0.10;67.10
1680;DHT22;838;51.794;12.258;2023-02-15T05:30:56;-0.10;68.40
1680;DHT22;838;51.794;12.258;2023-02-15T05:33:25;0.00;69.30
1680;DHT22;838;51.794;12.258;2023-02-15T05:35:50;-0.10;71.00
1680;DHT22;838;51.794;12.258;2023-02-15T05:38:16;0.00;72.30
1680;DHT22;838;51.794;12.258;2023-02-15T05:40:42;0.00;73.00
1680;DHT22;838;51.794;12.258;2023-02-15T05:43:08;0.10;73.50
1680;DHT22;838;51.794;12.258;2023-02-15T05:45:33;0.00;74.20
1680;DHT22;838;51.794;12.258;2023-02-15T05:47:59;0.10;75.30
1680;DHT22;838;51.794;12.258;2023-02-15T05:50:25;0.20;76.50
1680;DHT22;838;51.794;12.258;2023-02-15T05:52:51;0.20;77.40
1680;DHT22;838;51.794;12.258;2023-02-15T05:55:17;0.30;78.00
1680;DHT22;838;51.794;12.258;2023-02-15T05:57:43;0.40;78.20
1680;DHT22;838;51.794;12.258;2023-02-15T06:00:12;0.50;77.90
1680;DHT22;838;51.794;12.258;2023-02-15T06:02:39;0.60;78.20
1680;DHT22;838;51.794;12.258;2023-02-15T06:05:06;0.70;79.20
1680;DHT22;838;51.794;12.258;2023-02-15T06:07:32;0.90;77.50
1680;DHT22;838;51.794;12.258;2023-02-15T06:09:58;0.90;76.30
1680;DHT22;838;51.794;12.258;2023-02-15T06:12:23;0.90;75.50
1680;DHT22;838;51.794;12.258;2023-02-15T06:14:49;0.80;75.90
1680;DHT22;838;51.794;12.258;2023-02-15T06:17:15;0.80;75.30
1680;DHT22;838;51.794;12.258;2023-02-15T06:19:42;0.80;76.40
1680;DHT22;838;51.794;12.258;2023-02-15T06:22:07;0.80;76.20
1680;DHT22;838;51.794;12.258;2023-02-15T06:24:33;0.90;76.00
1680;DHT22;838;51.794;12.258;2023-02-15T06:26:59;1.00;75.30
1680;DHT22;838;51.794;12.258;2023-02-15T06:29:24;1.10;74.80
1680;DHT22;838;51.794;12.258;2023-02-15T06:31:50;1.00;73.70
1680;DHT22;838;51.794;12.258;2023-02-15T06:34:16;0.90;72.60
1680;DHT22;838;51.794;12.258;2023-02-15T06:36:42;0.80;72.70
1680;DHT22;838;51.794;12.258;2023-02-15T06:39:08;0.60;73.50
1680;DHT22;838;51.794;12.258;2023-02-15T06:41:33;0.70;74.50
1680;DHT22;838;51.794;12.258;2023-02-15T06:43:59;0.80;74.00
1680;DHT22;838;51.794;12.258;2023-02-15T06:46:25;0.80;73.60
1680;DHT22;838;51.794;12.258;2023-02-15T06:48:51;0.90;73.10
1680;DHT22;838;51.794;12.258;2023-02-15T06:51:17;0.80;72.20
1680;DHT22;838;51.794;12.258;2023-02-15T06:53:42;0.60;72.60
1680;DHT22;838;51.794;12.258;2023-02-15T06:56:10;0.50;73.30
1680;DHT22;838;51.794;12.258;2023-02-15T06:58:37;0.40;74.20
1680;DHT22;838;51.794;12.258;2023-02-15T07:01:03;0.50;74.90
1680;DHT22;838;51.794;12.258;2023-02-15T07:03:30;0.40;74.50
1680;DHT22;838;51.794;12.258;2023-02-15T07:05:57;0.40;75.00
1680;DHT22;838;51.794;12.258;2023-02-15T07:08:24;0.50;76.20
1680;DHT22;838;51.794;12.258;2023-02-15T07:10:54;0.40;75.20
1680;DHT22;838;51.794;12.258;2023-02-15T07:13:20;0.40;76.40
1680;DHT22;838;51.794;12.258;2023-02-15T07:15:47;0.50;76.70
1680;DHT22;838;51.794;12.258;2023-02-15T07:18:13;0.60;76.10
1680;DHT22;838;51.794;12.258;2023-02-15T07:20:39;0.60;76.40
1680;DHT22;838;51.794;12.258;2023-02-15T07:23:07;0.70;76.40
1680;DHT22;838;51.794;12.258;2023-02-15T07:25:33;0.70;76.00
1680;DHT22;838;51.794;12.258;2023-02-15T07:28:01;0.70;75.90
1680;DHT22;838;51.794;12.258;2023-02-15T07:30:27;0.70;76.50
1680;DHT22;838;51.794;12.258;2023-02-15T07:32:57;0.80;75.70
1680;DHT22;838;51.794;12.258;2023-02-15T07:35:52;0.90;76.60
1680;DHT22;838;51.794;12.258;2023-02-15T07:38:19;0.70;74.00
1680;DHT22;838;51.794;12.258;2023-02-15T07:40:45;0.70;75.60
1680;DHT22;838;51.794;12.258;2023-02-15T07:43:11;0.70;76.40
1680;DHT22;838;51.794;12.258;2023-02-15T07:45:37;0.80;77.30
1680;DHT22;838;51.794;12.258;2023-02-15T07:48:04;1.00;77.90
1680;DHT22;838;51.794;12.258;2023-02-15T07:50:31;1.00;75.70
1680;DHT22;838;51.794;12.258;2023-02-15T07:52:57;0.90;74.80
1680;DHT22;838;51.794;12.258;2023-02-15T07:55:22;1.00;77.00
1680;DHT22;838;51.794;12.258;2023-02-15T07:57:49;1.10;75.00
1680;DHT22;838;51.794;12.258;2023-02-15T08:00:17;1.30;74.70
1680;DHT22;838;51.794;12.258;2023-02-15T08:02:54;1.50;73.90
1680;DHT22;838;51.794;12.258;2023-02-15T08:05:39;1.60;72.60
1680;DHT22;838;51.794;12.258;2023-02-15T08:08:07;1.80;72.10
1680;DHT22;838;51.794;12.258;2023-02-15T08:10:33;1.50;65.90
1680;DHT22;838;51.794;12.258;2023-02-15T08:13:17;1.40;65.20
1680;DHT22;838;51.794;12.258;2023-02-15T08:15:50;1.40;68.50
1680;DHT22;838;51.794;12.258;2023-02-15T08:18:15;1.40;66.50
1680;DHT22;838;51.794;12.258;2023-02-15T08:20:41;1.50;68.00
1680;DHT22;838;51.794;12.258;2023-02-15T08:23:07;1.60;67.10
1680;DHT22;838;51.794;12.258;2023-02-15T08:25:33;1.70;65.30
1680;DHT22;838;51.794;12.258;2023-02-15T08:27:58;1.50;63.90
1680;DHT22;838;51.794;12.258;2023-02-15T08:30:24;1.60;64.80
1680;DHT22;838;51.794;12.258;2023-02-15T08:32:50;1.70;61.10
1680;DHT22;838;51.794;12.258;2023-02-15T08:35:15;1.70;61.80
1680;DHT22;838;51.794;12.258;2023-02-15T08:37:41;1.80;63.10
1680;DHT22;838;51.794;12.258;2023-02-15T08:40:07;1.80;61.50
1680;DHT22;838;51.794;12.258;2023-02-15T08:42:34;1.90;60.20
1680;DHT22;838;51.794;12.258;2023-02-15T08:45:00;1.60;58.80
1680;DHT22;838;51.794;12.258;2023-02-15T08:47:26;1.50;59.90
1680;DHT22;838;51.794;12.258;2023-02-15T08:49:51;1.50;62.60
1680;DHT22;838;51.794;12.258;2023-02-15T08:52:17;1.60;64.10
1680;DHT22;838;51.794;12.258;2023-02-15T08:54:43;1.80;64.80
1680;DHT22;838;51.794;12.258;2023-02-15T08:57:09;2.10;63.80
1680;DHT22;838;51.794;12.258;2023-02-15T08:59:35;2.20;61.00
1680;DHT22;838;51.794;12.258;2023-02-15T09:02:01;2.10;57.30
1680;DHT22;838;51.794;12.258;2023-02-15T09:04:28;2.20;59.00
1680;DHT22;838;51.794;12.258;2023-02-15T09:06:54;2.30;55.30
1680;DHT22;838;51.794;12.258;2023-02-15T09:09:20;2.30;57.00
1680;DHT22;838;51.794;12.258;2023-02-15T09:11:48;2.20;54.10
1680;DHT22;838;51.794;12.258;2023-02-15T09:14:17;2.10;56.30
1680;DHT22;838;51.794;12.258;2023-02-15T09:16:46;2.20;57.80
1680;DHT22;838;51.794;12.258;2023-02-15T09:19:14;2.60;57.60
1680;DHT22;838;51.794;12.258;2023-02-15T09:21:40;2.80;56.00
1680;DHT22;838;51.794;12.258;2023-02-15T09:24:08;2.70;51.80
1680;DHT22;838;51.794;12.258;2023-02-15T09:26:37;2.70;52.40
1680;DHT22;838;51.794;12.258;2023-02-15T09:29:03;2.60;49.90
1680;DHT22;838;51.794;12.258;2023-02-15T09:31:36;2.60;51.00
1680;DHT22;838;51.794;12.258;2023-02-15T09:34:02;2.80;52.50
1680;DHT22;838;51.794;12.258;2023-02-15T09:36:33;3.10;48.10
1680;DHT22;838;51.794;12.258;2023-02-15T09:39:25;3.00;45.90
1680;DHT22;838;51.794;12.258;2023-02-15T09:42:13;3.30;45.90
1680;DHT22;838;51.794;12.258;2023-02-15T09:58:19;4.50;38.10
1680;DHT22;838;51.794;12.258;2023-02-15T10:06:32;4.20;35.40
1680;DHT22;838;51.794;12.258;2023-02-15T10:15:21;4.10;42.50
1680;DHT22;838;51.794;12.258;2023-02-15T10:40:15;6.50;32.60
1680;DHT22;838;51.794;12.258;2023-02-15T10:48:04;6.80;28.00
1680;DHT22;838;51.794;12.258;2023-02-15T10:50:56;6.90;27.70
1680;DHT22;838;51.794;12.258;2023-02-15T11:03:53;8.00;24.90
1680;DHT22;838;51.794;12.258;2023-02-15T11:06:28;8.20;22.20
1680;DHT22;838;51.794;12.258;2023-02-15T11:08:59;8.40;21.20
1680;DHT22;838;51.794;12.258;2023-02-15T11:11:36;8.60;19.40
1680;DHT22;838;51.794;12.258;2023-02-15T11:14:13;8.60;19.20
1680;DHT22;838;51.794;12.258;2023-02-15T11:16:47;8.70;18.50
1680;DHT22;838;51.794;12.258;2023-02-15T11:19:40;8.90;18.00
1680;DHT22;838;51.794;12.258;2023-02-15T11:22:10;9.20;17.30
1680;DHT22;838;51.794;12.258;2023-02-15T11:24:44;9.50;16.50
1680;DHT22;838;51.794;12.258;2023-02-15T11:32:32;10.10;12.90
1680;DHT22;838;51.794;12.258;2023-02-15T11:43:21;10.70;9.60
1680;DHT22;838;51.794;12.258;2023-02-15T11:45:49;10.90;8.70
1680;DHT22;838;51.794;12.258;2023-02-15T11:48:15;11.00;8.50
1680;DHT22;838;51.794;12.258;2023-02-15T11:50:42;11.00;7.30
1680;DHT22;838;51.794;12.258;2023-02-15T11:53:20;11.00;7.60
1680;DHT22;838;51.794;12.258;2023-02-15T11:55:48;11.00;7.10
1680;DHT22;838;51.794;12.258;2023-02-15T11:58:39;11.00;6.90
1680;DHT22;838;51.794;12.258;2023-02-15T12:03:57;11.00;7.10
1680;DHT22;838;51.794;12.258;2023-02-15T12:06:27;11.00;6.00
1680;DHT22;838;51.794;12.258;2023-02-15T12:09:05;11.00;6.50
1680;DHT22;838;51.794;12.258;2023-02-15T12:11:39;11.00;6.40
1680;DHT22;838;51.794;12.258;2023-02-15T12:14:09;11.10;6.70
1680;DHT22;838;51.794;12.258;2023-02-15T12:16:50;11.10;6.70
1680;DHT22;838;51.794;12.258;2023-02-15T12:21:52;11.40;5.70
1680;DHT22;838;51.794;12.258;2023-02-15T12:24:21;11.40;5.40
1680;DHT22;838;51.794;12.258;2023-02-15T12:27:21;11.50;5.20
1680;DHT22;838;51.794;12.258;2023-02-15T12:35:42;11.60;4.50
1680;DHT22;838;51.794;12.258;2023-02-15T12:40:38;11.90;4.50
1680;DHT22;838;51.794;12.258;2023-02-15T12:43:25;11.90;4.10
1680;DHT22;838;51.794;12.258;2023-02-15T12:45:50;11.90;3.60
1680;DHT22;838;51.794;12.258;2023-02-15T12:48:18;11.90;3.80
1680;DHT22;838;51.794;12.258;2023-02-15T12:50:49;12.10;3.60
1680;DHT22;838;51.794;12.258;2023-02-15T12:55:58;12.30;2.00
1680;DHT22;838;51.794;12.258;2023-02-15T12:58:26;12.20;2.00
1680;DHT22;838;51.794;12.258;2023-02-15T13:01:22;12.20;1.00
1680;DHT22;838;51.794;12.258;2023-02-15T13:06:18;12.20;1.00
1680;DHT22;838;51.794;12.258;2023-02-15T13:08:55;12.20;1.00
1680;DHT22;838;51.794;12.258;2023-02-15T13:11:30;12.40;1.00
1680;DHT22;838;51.794;12.258;2023-02-15T13:16:47;12.50;1.00
1680;DHT22;838;51.794;12.258;2023-02-15T13:19:37;12.40;1.10
1680;DHT22;838;51.794;12.258;2023-02-15T13:22:10;12.50;1.20
1680;DHT22;838;51.794;12.258;2023-02-15T13:24:45;12.60;1.00
1680;DHT22;838;51.794;12.258;2023-02-15T13:27:21;12.60;1.00
1680;DHT22;838;51.794;12.258;2023-02-15T13:29:51;12.40;1.00
1680;DHT22;838;51.794;12.258;2023-02-15T13:32:34;12.40;1.00
1680;DHT22;838;51.794;12.258;2023-02-15T13:35:04;12.50;1.00
1680;DHT22;838;51.794;12.258;2023-02-15T13:40:35;12.50;1.00
1680;DHT22;838;51.794;12.258;2023-02-15T13:43:11;12.50;1.00
1680;DHT22;838;51.794;12.258;2023-02-15T13:59:30;12.70;1.00
1680;DHT22;838;51.794;12.258;2023-02-15T14:04:47;12.50;1.00
1680;DHT22;838;51.794;12.258;2023-02-15T14:07:41;12.50;1.00
1680;DHT22;838;51.794;12.258;2023-02-15T14:18:48;12.50;1.00
1680;DHT22;838;51.794;12.258;2023-02-15T14:32:18;12.30;1.00
1680;DHT22;838;51.794;12.258;2023-02-15T14:34:50;12.30;1.00
1680;DHT22;838;51.794;12.258;2023-02-15T14:40:30;12.50;1.00
1680;DHT22;838;51.794;12.258;2023-02-15T14:49:10;12.50;1.00
1680;DHT22;838;51.794;12.258;2023-02-15T14:59:52;12.50;1.00
1680;DHT22;838;51.794;12.258;2023-02-15T15:02:30;12.60;1.00
1680;DHT22;838;51.794;12.258;2023-02-15T15:07:52;12.20;1.00
1680;DHT22;838;51.794;12.258;2023-02-15T15:10:36;12.20;1.00
1680;DHT22;838;51.794;12.258;2023-02-15T15:16:23;12.00;1.00
1680;DHT22;838;51.794;12.258;2023-02-15T15:18:46;12.10;1.00
1680;DHT22;838;51.794;12.258;2023-02-15T15:49:49;11.70;1.30
1680;DHT22;838;51.794;12.258;2023-02-15T15:52:18;11.70;1.30
1680;DHT22;838;51.794;12.258;2023-02-15T15:54:48;11.50;1.70
1680;DHT22;838;51.794;12.258;2023-02-15T15:57:28;11.70;1.50
1680;DHT22;838;51.794;12.258;2023-02-15T15:59:56;11.90;1.00
1680;DHT22;838;51.794;12.258;2023-02-15T16:02:25;11.80;1.00
1680;DHT22;838;51.794;12.258;2023-02-15T16:04:51;11.60;1.20
1680;DHT22;838;51.794;12.258;2023-02-15T16:12:25;11.20;2.50
1680;DHT22;838;51.794;12.258;2023-02-15T16:14:51;11.30;2.30
1680;DHT22;838;51.794;12.258;2023-02-15T16:17:29;11.20;2.30
1680;DHT22;838;51.794;12.258;2023-02-15T16:22:39;11.10;2.60
1680;DHT22;838;51.794;12.258;2023-02-15T16:28:07;10.80;3.60
1680;DHT22;838;51.794;12.258;2023-02-15T16:30:35;10.70;3.90
1680;DHT22;838;51.794;12.258;2023-02-15T16:33:16;10.30;4.90
1680;DHT22;838;51.794;12.258;2023-02-15T16:35:56;10.10;5.40
1680;DHT22;838;51.794;12.258;2023-02-15T16:41:11;9.60;8.40
1680;DHT22;838;51.794;12.258;2023-02-15T16:43:37;9.50;8.70
1680;DHT22;838;51.794;12.258;2023-02-15T16:46:06;9.30;9.40
1680;DHT22;838;51.794;12.258;2023-02-15T16:48:34;9.10;11.20
1680;DHT22;838;51.794;12.258;2023-02-15T16:51:01;9.20;10.80
1680;DHT22;838;51.794;12.258;2023-02-15T16:53:28;9.40;9.70
1680;DHT22;838;51.794;12.258;2023-02-15T16:55:57;9.50;9.40
1680;DHT22;838;51.794;12.258;2023-02-15T16:58:45;9.80;8.30
1680;DHT22;838;51.794;12.258;2023-02-15T17:01:15;9.90;7.20
1680;DHT22;838;51.794;12.258;2023-02-15T17:03:41;10.00;6.40
1680;DHT22;838;51.794;12.258;2023-02-15T17:06:25;9.90;6.90
1680;DHT22;838;51.794;12.258;2023-02-15T17:08:52;9.90;7.00
1680;DHT22;838;51.794;12.258;2023-02-15T17:11:20;9.80;7.30
1680;DHT22;838;51.794;12.258;2023-02-15T17:16:53;9.50;8.50
1680;DHT22;838;51.794;12.258;2023-02-15T17:19:23;9.50;8.50
1680;DHT22;838;51.794;12.258;2023-02-15T17:21:56;9.50;8.00
1680;DHT22;838;51.794;12.258;2023-02-15T17:24:30;9.50;8.30
1680;DHT22;838;51.794;12.258;2023-02-15T17:27:00;9.40;8.20
1680;DHT22;838;51.794;12.258;2023-02-15T17:29:37;9.20;8.00
1680;DHT22;838;51.794;12.258;2023-02-15T17:32:05;9.20;7.50
1680;DHT22;838;51.794;12.258;2023-02-15T17:42:46;8.80;8.00
1680;DHT22;838;51.794;12.258;2023-02-15T17:45:12;8.70;7.90
1680;DHT22;838;51.794;12.258;2023-02-15T17:47:38;8.70;8.00
1680;DHT22;838;51.794;12.258;2023-02-15T17:50:06;8.70;8.10
1680;DHT22;838;51.794;12.258;2023-02-15T17:52:32;8.80;8.00
1680;DHT22;838;51.794;12.258;2023-02-15T17:54:59;8.80;8.00
1680;DHT22;838;51.794;12.258;2023-02-15T17:57:47;8.80;8.40
1680;DHT22;838;51.794;12.258;2023-02-15T18:00:14;8.80;8.20
1680;DHT22;838;51.794;12.258;2023-02-15T18:02:58;8.80;8.00
1680;DHT22;838;51.794;12.258;2023-02-15T18:05:43;8.80;8.00
1680;DHT22;838;51.794;12.258;2023-02-15T18:08:27;8.70;7.90
1680;DHT22;838;51.794;12.258;2023-02-15T18:11:12;8.70;8.10
1680;DHT22;838;51.794;12.258;2023-02-15T18:13:56;8.60;8.10
1680;DHT22;838;51.794;12.258;2023-02-15T18:16:30;8.50;8.50
1680;DHT22;838;51.794;12.258;2023-02-15T18:18:57;8.40;9.00
1680;DHT22;838;51.794;12.258;2023-02-15T18:21:24;8.10;9.90
1680;DHT22;838;51.794;12.258;2023-02-15T18:23:50;8.00;10.10
1680;DHT22;838;51.794;12.258;2023-02-15T18:26:18;7.90;10.10
1680;DHT22;838;51.794;12.258;2023-02-15T18:28:45;7.70;10.50
1680;DHT22;838;51.794;12.258;2023-02-15T18:31:12;7.50;11.30
1680;DHT22;838;51.794;12.258;2023-02-15T18:33:53;7.40;12.20
1680;DHT22;838;51.794;12.258;2023-02-15T18:36:26;7.30;12.40
1680;DHT22;838;51.794;12.258;2023-02-15T18:38:53;7.00;15.10
1680;DHT22;838;51.794;12.258;2023-02-15T18:41:20;6.70;17.10
1680;DHT22;838;51.794;12.258;2023-02-15T18:43:47;6.70;18.30
1680;DHT22;838;51.794;12.258;2023-02-15T18:46:14;6.40;21.40
1680;DHT22;838;51.794;12.258;2023-02-15T18:48:40;6.20;23.30
1680;DHT22;838;51.794;12.258;2023-02-15T18:51:21;6.20;22.50
1680;DHT22;838;51.794;12.258;2023-02-15T18:53:50;6.50;21.60
1680;DHT22;838;51.794;12.258;2023-02-15T18:56:19;6.70;19.90
1680;DHT22;838;51.794;12.258;2023-02-15T18:58:45;6.90;17.90
1680;DHT22;838;51.794;12.258;2023-02-15T19:01:16;7.00;17.30
1680;DHT22;838;51.794;12.258;2023-02-15T19:03:47;7.00;16.50
1680;DHT22;838;51.794;12.258;2023-02-15T19:06:14;7.10;15.30
1680;DHT22;838;51.794;12.258;2023-02-15T19:08:44;7.00;15.50
1680;DHT22;838;51.794;12.258;2023-02-15T19:11:17;7.00;15.30
1680;DHT22;838;51.794;12.258;2023-02-15T19:13:44;7.00;15.00
1680;DHT22;838;51.794;12.258;2023-02-15T19:18:54;6.70;15.50
1680;DHT22;838;51.794;12.258;2023-02-15T19:21:21;6.30;16.90
1680;DHT22;838;51.794;12.258;2023-02-15T19:23:52;6.00;19.30
1680;DHT22;838;51.794;12.258;2023-02-15T19:26:19;5.90;20.80
1680;DHT22;838;51.794;12.258;2023-02-15T19:28:45;5.70;21.10
1680;DHT22;838;51.794;12.258;2023-02-15T19:31:11;5.70;22.00
1680;DHT22;838;51.794;12.258;2023-02-15T19:33:37;5.50;23.10
1680;DHT22;838;51.794;12.258;2023-02-15T19:36:05;5.50;23.50
1680;DHT22;838;51.794;12.258;2023-02-15T19:38:32;5.50;23.90
1680;DHT22;838;51.794;12.258;2023-02-15T19:41:04;5.50;23.90
1680;DHT22;838;51.794;12.258;2023-02-15T19:43:31;5.40;24.20
1680;DHT22;838;51.794;12.258;2023-02-15T19:45:56;5.30;25.10
1680;DHT22;838;51.794;12.258;2023-02-15T19:48:22;5.10;26.10
1680;DHT22;838;51.794;12.258;2023-02-15T19:50:49;5.10;27.00
1680;DHT22;838;51.794;12.258;2023-02-15T19:53:25;5.20;26.10
1680;DHT22;838;51.794;12.258;2023-02-15T19:55:51;5.30;25.40
1680;DHT22;838;51.794;12.258;2023-02-15T19:58:18;5.40;23.90
1680;DHT22;838;51.794;12.258;2023-02-15T20:00:48;5.40;23.60
1680;DHT22;838;51.794;12.258;2023-02-15T20:03:14;5.40;23.20
1680;DHT22;838;51.794;12.258;2023-02-15T20:05:40;5.70;21.40
1680;DHT22;838;51.794;12.258;2023-02-15T20:08:17;5.80;19.50
1680;DHT22;838;51.794;12.258;2023-02-15T20:10:44;5.70;19.40
1680;DHT22;838;51.794;12.258;2023-02-15T20:13:20;5.60;19.30
1680;DHT22;838;51.794;12.258;2023-02-15T20:15:46;5.50;20.00
1680;DHT22;838;51.794;12.258;2023-02-15T20:18:12;5.30;20.80
1680;DHT22;838;51.794;12.258;2023-02-15T20:23:08;4.90;22.20
1680;DHT22;838;51.794;12.258;2023-02-15T20:25:37;4.90;22.30
1680;DHT22;838;51.794;12.258;2023-02-15T20:28:03;5.00;21.80
1680;DHT22;838;51.794;12.258;2023-02-15T20:30:30;5.10;22.10
1680;DHT22;838;51.794;12.258;2023-02-15T20:32:56;5.10;21.60
1680;DHT22;838;51.794;12.258;2023-02-15T20:35:24;4.90;21.90
1680;DHT22;838;51.794;12.258;2023-02-15T20:37:52;4.90;21.90
1680;DHT22;838;51.794;12.258;2023-02-15T20:40:21;4.70;22.70
1680;DHT22;838;51.794;12.258;2023-02-15T20:42:48;4.60;23.40
1680;DHT22;838;51.794;12.258;2023-02-15T20:47:40;4.30;25.40
1680;DHT22;838;51.794;12.258;2023-02-15T20:50:19;4.20;25.50
1680;DHT22;838;51.794;12.258;2023-02-15T20:52:47;4.00;26.50
1680;DHT22;838;51.794;12.258;2023-02-15T20:55:19;3.80;28.20